Time;durP1;ratioP1;P1;durP2;ratioP2;P2;SDS_P1;SDS_P2;PMS_P1;PMS_P2;Temp;Humidity;BMP_temperature;BMP_pressure;BME280_temperature;BME280_humidity;BME280_pressure;Samples;Min_cycle;Max_cycle;Signal;HPM_P1;HPM_P2
2024/02/15 00:12:39;;;;;;;36.80;17.60;;;;;;;9.38;73.03;100748.45;681469;1265;139418;-80
2024/02/15 00:27:43;;;;;;;33.50;18.00;;;;;;;9.42;72.92;100744.61;681427;1266;139844;-81
2024/02/15 00:42:47;;;;;;;30.40;16.60;;;;;;;9.42;73.21;100749.55;681563;1260;140403;-81
2024/02/15 00:57:50;;;;;;;36.20;17.00;;;;;;;9.41;73.26;100752.94;681301;1260;140012;-80
2024/02/15 01:12:54;;;;;;;34.80;18.10;;;;;;;9.42;73.87;100749.48;681351;1266;140049;-80
2024/02/15 01:27:58;;;;;;;34.70;17.60;;;;;;;9.31;75.01;100751.28;681318;1266;139523;-81
2024/02/15 01:43:01;;;;;;;33.20;19.00;;;;;;;9.13;76.09;100741.20;681225;1263;140141;-81
2024/02/15 01:58:05;;;;;;;40.90;21.10;;;;;;;9.20;77.23;100739.33;681320;1267;139310;-81
2024/02/15 02:13:11;;;;;;;40.90;20.20;;;;;;;9.09;78.33;100731.90;681416;1265;139290;-80
2024/02/15 02:28:18;;;;;;;42.00;22.70;;;;;;;8.95;80.51;100724.73;681369;1261;139680;-82
2024/02/15 02:43:21;;;;;;;37.80;21.20;;;;;;;8.85;81.90;100722.89;681475;1265;139494;-81
2024/02/15 02:58:25;;;;;;;47.00;22.70;;;;;;;8.66;83.70;100721.80;681229;1265;139877;-82
2024/02/15 03:13:30;;;;;;;46.70;23.00;;;;;;;8.54;85.52;100720.58;681351;1261;139209;-81
2024/02/15 03:28:36;;;;;;;63.50;30.30;;;;;;;8.48;87.03;100721.55;681338;1261;139789;-81
2024/02/15 03:43:40;;;;;;;55.70;29.40;;;;;;;8.37;88.12;100725.64;681375;1261;139980;-81
2024/02/15 03:58:43;;;;;;;58.80;28.00;;;;;;;8.30;90.15;100723.46;681217;1260;139786;-82
2024/02/15 04:13:50;;;;;;;154.80;76.40;;;;;;;8.38;91.20;100725.02;681129;1260;139169;-82
2024/02/15 04:28:53;;;;;;;66.00;30.10;;;;;;;8.35;92.58;100713.39;681459;1267;140321;-81
2024/02/15 04:43:57;;;;;;;60.80;31.80;;;;;;;8.45;93.02;100712.02;681382;1260;139256;-81
2024/02/15 04:59:00;;;;;;;69.40;31.20;;;;;;;8.43;94.60;100715.29;681599;1265;140506;-81
2024/02/15 05:14:06;;;;;;;64.80;29.40;;;;;;;8.52;95.64;100716.56;681551;1264;140078;-83
2024/02/15 05:29:11;;;;;;;78.60;37.90;;;;;;;8.53;95.98;100716.51;681703;1264;139900;-82
2024/02/15 05:44:18;;;;;;;77.00;34.90;;;;;;;8.70;96.20;100721.88;681638;1265;139805;-79
2024/02/15 05:59:22;;;;;;;78.40;33.90;;;;;;;8.74;96.17;100732.73;681617;1276;139576;-80
2024/02/15 06:14:27;;;;;;;115.10;43.00;;;;;;;8.85;96.43;100731.64;681560;1264;139297;-81
2024/02/15 06:44:55;;;;;;;73.50;32.50;;;;;;;8.93;98.38;100745.63;681526;1264;138941;-80
2024/02/15 06:59:59;;;;;;;75.10;33.70;;;;;;;8.97;98.92;100750.62;681533;1266;138952;-82
2024/02/15 07:15:05;;;;;;;69.90;30.00;;;;;;;9.04;100.00;100750.80;681489;1264;139182;-83
2024/02/15 07:30:10;;;;;;;70.10;31.70;;;;;;;9.34;99.51;100766.73;681516;1262;139420;-80
2024/02/15 07:45:21;;;;;;;97.40;39.40;;;;;;;9.59;98.83;100770.96;681391;1262;139605;-81
2024/02/15 08:00:29;;;;;;;90.90;40.70;;;;;;;9.60;99.04;100769.77;681653;1263;140273;-82
2024/02/15 08:15:40;;;;;;;88.80;37.70;;;;;;;9.81;99.42;100761.96;681635;1262;141090;-82
2024/02/15 08:30:44;;;;;;;87.40;37.30;;;;;;;9.89;99.85;100764.12;681584;1261;138735;-82
2024/02/15 08:45:50;;;;;;;127.80;54.20;;;;;;;10.09;100.00;100771.17;681546;1275;138896;-82
2024/02/15 09:00:57;;;;;;;86.20;37.80;;;;;;;10.20;100.00;100777.42;681865;1261;139196;-81
2024/02/15 09:16:03;;;;;;;85.50;36.60;;;;;;;10.38;100.00;100781.63;681597;1263;140847;-80
2024/02/15 09:31:06;;;;;;;84.40;36.60;;;;;;;10.53;100.00;100794.98;681634;1259;139216;-80
2024/02/15 09:46:11;;;;;;;107.80;46.00;;;;;;;10.84;100.00;100794.83;681681;1261;140341;-82
2024/02/15 10:01:16;;;;;;;123.30;46.30;;;;;;;10.83;100.00;100791.20;681704;1263;141032;-80
2024/02/15 10:16:24;;;;;;;100.50;43.10;;;;;;;11.29;100.00;100789.15;681635;1264;141186;-80
2024/02/15 10:31:29;;;;;;;87.40;37.20;;;;;;;11.37;100.00;100777.68;682013;1261;139655;-81
2024/02/15 10:46:34;;;;;;;86.30;36.80;;;;;;;11.57;100.00;100784.41;682015;1264;139324;-79
2024/02/15 11:01:39;;;;;;;95.60;41.70;;;;;;;11.60;100.00;100767.50;682211;1262;140133;-81
2024/02/15 11:16:46;;;;;;;98.20;41.80;;;;;;;11.92;100.00;100776.89;681873;1265;140142;-82
2024/02/15 11:31:54;;;;;;;98.30;41.50;;;;;;;11.89;100.00;100778.77;681593;1264;377287;-81
2024/02/15 11:47:04;;;;;;;86.70;40.20;;;;;;;11.82;100.00;100763.73;682010;1266;139587;-81
2024/02/15 12:33:19;;;;;;;84.70;39.50;;;;;;;12.17;100.00;100748.84;681862;1261;139377;-81
2024/02/15 12:48:45;;;;;;;84.30;39.60;;;;;;;12.31;100.00;100745.88;682114;1266;139931;-81
2024/02/15 13:03:49;;;;;;;76.70;37.00;;;;;;;12.41;100.00;100746.52;682123;1265;139590;-83
2024/02/15 13:18:52;;;;;;;89.90;37.70;;;;;;;12.40;100.00;100736.31;681992;1264;139091;-81
2024/02/15 13:33:56;;;;;;;86.30;40.60;;;;;;;12.50;100.00;100733.02;681960;1261;139713;-81
2024/02/15 13:49:03;;;;;;;82.60;40.10;;;;;;;12.52;100.00;100730.73;682146;1263;139883;-81
2024/02/15 14:04:09;;;;;;;128.30;57.70;;;;;;;12.53;100.00;100734.97;681982;1265;139316;-81
2024/02/15 14:19:13;;;;;;;99.20;45.90;;;;;;;12.48;100.00;100731.89;682101;1264;140013;-81
2024/02/15 14:34:20;;;;;;;99.30;44.90;;;;;;;12.45;100.00;100740.45;681989;1265;138840;-81
2024/02/15 14:49:24;;;;;;;96.00;45.20;;;;;;;12.38;100.00;100727.71;682086;1263;139591;-81
2024/02/15 15:04:35;;;;;;;93.40;40.50;;;;;;;12.49;100.00;100730.59;681756;1273;140194;-82
2024/02/15 15:19:39;;;;;;;106.50;51.10;;;;;;;12.42;100.00;100737.48;681934;1266;139722;-82
2024/02/15 15:34:42;;;;;;;101.50;47.00;;;;;;;12.50;100.00;100739.80;681797;1274;139640;-81
2024/02/15 15:49:49;;;;;;;96.20;43.00;;;;;;;12.48;100.00;100744.17;682165;1265;140255;-82
2024/02/15 16:04:55;;;;;;;89.60;44.70;;;;;;;12.60;100.00;100762.46;682034;1266;139060;-82
2024/02/15 16:20:05;;;;;;;89.10;42.10;;;;;;;12.51;100.00;100773.09;681805;1262;139702;-82
2024/02/15 16:35:11;;;;;;;91.50;47.80;;;;;;;12.51;100.00;100777.29;682206;1266;138852;-81
2024/02/15 16:50:15;;;;;;;83.70;42.10;;;;;;;12.50;100.00;100780.34;681880;1263;140058;-82
2024/02/15 17:05:19;;;;;;;134.80;68.50;;;;;;;12.48;100.00;100795.92;682029;1263;139555;-81
2024/02/15 17:20:24;;;;;;;150.80;80.00;;;;;;;12.47;100.00;100803.58;681926;1260;139640;-82
2024/02/15 17:35:29;;;;;;;119.70;58.80;;;;;;;12.48;100.00;100807.73;682154;1264;140123;-81
2024/02/15 17:50:33;;;;;;;113.20;56.80;;;;;;;12.54;100.00;100816.85;681918;1262;140464;-81
2024/02/15 18:05:38;;;;;;;127.50;59.80;;;;;;;12.47;100.00;100813.58;681891;1260;140181;-81
2024/02/15 18:20:44;;;;;;;122.10;64.30;;;;;;;12.42;100.00;100805.25;681758;1264;139641;-81
2024/02/15 18:35:48;;;;;;;111.10;56.80;;;;;;;12.29;100.00;100808.46;682192;1260;139741;-81
2024/02/15 18:50:52;;;;;;;111.30;57.40;;;;;;;12.23;100.00;100808.27;681879;1264;139551;-82
2024/02/15 19:05:56;;;;;;;99.10;49.70;;;;;;;12.31;100.00;100804.27;682043;1263;139428;-81
2024/02/15 19:21:00;;;;;;;83.70;42.60;;;;;;;12.32;100.00;100808.08;681919;1260;142250;-81
2024/02/15 19:36:06;;;;;;;96.80;48.70;;;;;;;12.25;100.00;100793.73;682060;1260;139683;-81
2024/02/15 19:51:11;;;;;;;103.80;50.60;;;;;;;12.37;100.00;100791.69;681923;1261;141543;-81
2024/02/15 20:06:22;;;;;;;120.90;53.90;;;;;;;12.37;100.00;100790.98;682141;1261;139570;-80
2024/02/15 20:21:33;;;;;;;94.30;45.50;;;;;;;12.31;100.00;100786.23;681947;1264;140188;-82
2024/02/15 20:36:38;;;;;;;101.00;47.60;;;;;;;12.26;100.00;100787.18;682019;1260;139252;-80
2024/02/15 20:51:41;;;;;;;94.20;40.00;;;;;;;12.30;100.00;100790.52;681728;1263;139128;-81
2024/02/15 21:06:46;;;;;;;84.50;41.70;;;;;;;12.39;100.00;100790.36;681619;1264;140027;-80
2024/02/15 21:21:50;;;;;;;79.20;40.20;;;;;;;12.44;100.00;100790.19;681647;1260;140003;-80
2024/02/15 21:36:55;;;;;;;62.70;34.60;;;;;;;12.37;100.00;100785.71;681833;1260;140298;-80
2024/02/15 21:51:58;;;;;;;67.10;35.00;;;;;;;12.36;100.00;100789.45;681887;1264;139027;-80
2024/02/15 22:07:03;;;;;;;72.60;38.70;;;;;;;12.47;100.00;100787.63;682000;1261;139129;-82
2024/02/15 22:22:09;;;;;;;69.30;36.50;;;;;;;12.52;100.00;100795.80;681967;1266;140122;-81
2024/02/15 22:37:14;;;;;;;63.10;31.80;;;;;;;12.52;100.00;100797.16;681980;1264;139015;-81
2024/02/15 22:52:20;;;;;;;70.00;36.40;;;;;;;12.37;100.00;100796.60;681920;1265;139198;-80
2024/02/15 23:07:24;;;;;;;69.60;36.70;;;;;;;12.26;100.00;100800.89;681998;1262;139546;-82
2024/02/15 23:22:28;;;;;;;66.80;36.30;;;;;;;12.22;100.00;100805.45;681553;1264;460487;-80
2024/02/15 23:52:54;;;;;;;67.90;37.40;;;;;;;12.03;100.00;100799.50;681914;1272;139565;-80
